Time;durP1;ratioP1;P1;durP2;ratioP2;P2;SDS_P1;SDS_P2;PMS_P1;PMS_P2;Temp;Humidity;BMP_temperature;BMP_pressure;BME280_temperature;BME280_humidity;BME280_pressure;Samples;Min_cycle;Max_cycle;Signal;HPM_P1;HPM_P2
2021/03/14 00:01:49;;;;;;;14.33;8.25;;;;;;;27.73;30.13;158449.13;1705417;83;21193;-78
2021/03/14 00:04:22;;;;;;;14.05;8.10;;;;;;;27.73;30.14;158449.13;1720792;83;21890;-79
2021/03/14 00:06:54;;;;;;;15.53;8.18;;;;;;;27.70;30.17;158441.19;1752827;81;21301;-78
2021/03/14 00:09:27;;;;;;;15.53;8.78;;;;;;;27.62;30.20;158419.83;1716409;83;21215;-79
2021/03/14 00:12:00;;;;;;;16.25;8.85;;;;;;;27.52;30.25;158393.23;1716213;83;21217;-79
2021/03/14 00:14:34;;;;;;;13.93;7.78;;;;;;;27.51;30.28;158390.58;1716410;83;21178;-80
2021/03/14 00:17:06;;;;;;;14.50;7.97;;;;;;;27.40;30.31;158360.02;1716453;83;21193;-78
2021/03/14 00:19:40;;;;;;;13.48;8.20;;;;;;;27.29;30.40;158329.42;1713173;83;21178;-79
2021/03/14 00:22:12;;;;;;;11.53;7.83;;;;;;;27.17;30.41;158298.88;1706516;83;21202;-79
2021/03/14 00:24:45;;;;;;;15.72;9.23;;;;;;;26.92;30.67;158232.34;1706627;84;21412;-79
2021/03/14 00:27:17;;;;;;;13.40;7.50;;;;;;;26.88;30.72;158221.69;1706492;84;21333;-79
2021/03/14 00:29:50;;;;;;;13.35;8.00;;;;;;;26.79;30.85;158196.47;1706444;84;21237;-79
2021/03/14 00:32:22;;;;;;;13.62;7.78;;;;;;;26.81;30.81;158201.75;1706571;83;21340;-80
2021/03/14 00:34:55;;;;;;;14.73;7.92;;;;;;;26.71;30.95;158176.53;1716017;83;21778;-80
2021/03/14 00:37:28;;;;;;;13.22;7.40;;;;;;;26.69;30.99;158169.86;1722267;83;21237;-78
2021/03/14 00:40:02;;;;;;;14.80;8.73;;;;;;;26.72;31.05;158179.20;1722317;83;21166;-79
2021/03/14 00:42:35;;;;;;;13.88;8.30;;;;;;;26.63;31.13;158153.94;1722317;83;21300;-78
2021/03/14 00:45:09;;;;;;;14.70;8.08;;;;;;;26.63;31.15;158153.94;1722268;83;21170;-78
2021/03/14 00:47:41;;;;;;;14.30;8.10;;;;;;;26.61;31.16;158148.61;1701127;83;21340;-79
2021/03/14 00:50:15;;;;;;;14.15;8.73;;;;;;;26.51;31.25;158122.05;1675810;83;21316;-78
2021/03/14 00:52:48;;;;;;;13.78;8.35;;;;;;;26.48;31.27;158112.75;1689134;84;21178;-80
2021/03/14 00:55:21;;;;;;;11.40;7.45;;;;;;;26.41;31.35;158095.47;1693389;85;21340;-79
2021/03/14 00:57:54;;;;;;;12.35;7.55;;;;;;;26.28;31.49;158059.52;1693518;83;21364;-80
2021/03/14 01:00:27;;;;;;;12.10;7.12;;;;;;;26.24;31.50;158048.92;1718664;83;21392;-80
2021/03/14 01:03:00;;;;;;;12.73;7.83;;;;;;;26.37;31.36;158084.78;1713144;83;21356;-77
2021/03/14 01:05:35;;;;;;;12.13;7.28;;;;;;;26.37;31.37;158083.47;1709595;84;21345;-79
2021/03/14 01:08:07;;;;;;;11.05;7.30;;;;;;;26.33;31.35;158072.83;1709660;84;21701;-78
2021/03/14 01:10:40;;;;;;;16.25;8.23;;;;;;;26.27;31.40;158058.22;1710296;83;21191;-77
2021/03/14 01:13:14;;;;;;;14.10;7.55;;;;;;;26.22;31.41;158043.59;1715933;83;21699;-78
2021/03/14 01:15:46;;;;;;;13.83;7.40;;;;;;;26.21;31.38;158042.30;1715643;83;21861;-78
2021/03/14 01:18:19;;;;;;;12.78;7.33;;;;;;;26.17;31.42;158031.66;1715745;83;21382;-78
2021/03/14 01:20:51;;;;;;;13.85;8.00;;;;;;;26.19;31.41;158035.63;1695384;83;21322;-77
2021/03/14 01:23:23;;;;;;;12.40;7.05;;;;;;;26.09;31.50;158010.42;1715232;83;21318;-77
2021/03/14 01:25:56;;;;;;;17.02;8.03;;;;;;;26.07;31.54;158005.09;1696168;83;21215;-78
2021/03/14 01:28:28;;;;;;;13.98;7.67;;;;;;;26.13;31.50;158021.02;1713805;82;21180;-77
2021/03/14 01:31:01;;;;;;;14.95;8.28;;;;;;;26.04;31.55;157997.11;1691971;84;21836;-77
2021/03/14 01:33:33;;;;;;;16.97;8.28;;;;;;;25.98;31.64;157979.84;1698668;84;21372;-85
2021/03/14 01:36:07;;;;;;;14.95;8.40;;;;;;;25.99;31.66;157982.50;1707231;84;21317;-84
2021/03/14 01:38:39;;;;;;;12.90;7.75;;;;;;;25.95;31.70;157973.22;1706249;83;21207;-86
2021/03/14 01:41:12;;;;;;;13.75;7.95;;;;;;;25.75;31.88;157918.70;1715649;82;21357;-85
2021/03/14 01:43:44;;;;;;;16.55;9.45;;;;;;;25.88;31.82;157953.28;1709121;82;21320;-87
2021/03/14 01:46:17;;;;;;;15.08;9.28;;;;;;;26.12;31.63;158018.34;1704680;83;21695;-88
2021/03/14 01:48:50;;;;;;;16.73;9.63;;;;;;;25.91;31.77;157961.28;1700107;83;21218;-89
2021/03/14 01:51:22;;;;;;;15.13;9.20;;;;;;;25.77;31.97;157924.08;1708276;84;21319;-87
2021/03/14 01:53:55;;;;;;;13.90;9.10;;;;;;;25.78;31.95;157928.05;1711511;83;21817;-88
2021/03/14 01:56:28;;;;;;;18.40;9.40;;;;;;;26.17;31.64;158030.30;1710054;82;21317;-89
2021/03/14 01:59:00;;;;;;;17.25;9.38;;;;;;;26.19;31.54;158036.98;1709619;84;21340;-88
2021/03/14 02:01:34;;;;;;;15.70;8.83;;;;;;;26.24;31.46;158050.23;1689768;84;21257;-88
2021/03/14 02:04:07;;;;;;;14.23;8.58;;;;;;;26.24;31.48;158050.23;1715983;82;21411;-89
2021/03/14 02:06:40;;;;;;;16.35;8.20;;;;;;;26.13;31.52;158021.02;1722617;83;21387;-89
2021/03/14 02:09:14;;;;;;;17.10;8.85;;;;;;;26.13;31.51;158021.02;1714760;83;21306;-88
2021/03/14 02:11:46;;;;;;;14.83;8.85;;;;;;;26.06;31.59;158002.44;1721734;83;21864;-89
2021/03/14 02:14:18;;;;;;;14.80;7.90;;;;;;;25.93;31.70;157966.55;1721911;82;21349;-88
2021/03/14 02:16:51;;;;;;;20.25;9.68;;;;;;;25.79;31.85;157929.41;1721103;83;21831;-87
2021/03/14 02:19:32;;;;;;;17.52;9.15;;;;;;;25.77;31.93;157924.08;1720553;83;21330;-88
2021/03/14 02:22:05;;;;;;;16.60;9.47;;;;;;;25.67;32.01;157898.78;1723369;83;21234;-87
2021/03/14 02:24:46;;;;;;;16.37;9.25;;;;;;;25.82;31.92;157937.33;1719635;83;21406;-88
2021/03/14 02:27:18;;;;;;;14.87;9.13;;;;;;;25.81;31.94;157936.03;1718536;83;21251;-89
2021/03/14 02:29:51;;;;;;;17.77;9.48;;;;;;;25.82;31.90;157938.69;1713970;83;21232;-87
2021/03/14 02:32:24;;;;;;;15.98;9.68;;;;;;;25.91;31.84;157961.28;1718536;82;21231;-87
2021/03/14 02:35:01;;;;;;;17.12;9.63;;;;;;;25.89;31.78;157957.25;1718054;83;21238;-87
2021/03/14 02:37:33;;;;;;;16.97;9.35;;;;;;;25.91;31.76;157961.28;1716908;83;21347;-86
2021/03/14 02:40:07;;;;;;;18.55;9.50;;;;;;;25.81;31.83;157934.66;1716967;83;21198;-87
2021/03/14 02:42:41;;;;;;;22.05;11.88;;;;;;;25.72;31.92;157910.72;1721706;83;21180;-87
2021/03/14 02:45:14;;;;;;;19.82;11.40;;;;;;;25.65;32.06;157893.45;1723154;83;21227;-88
2021/03/14 02:47:46;;;;;;;21.95;13.03;;;;;;;25.62;32.20;157884.17;1720318;83;21336;-87
2021/03/14 02:50:20;;;;;;;26.40;12.50;;;;;;;25.65;32.26;157893.45;1711574;83;21206;-88
2021/03/14 02:52:52;;;;;;;22.77;12.78;;;;;;;25.79;32.23;157929.41;1718316;83;21290;-88
2021/03/14 02:55:25;;;;;;;25.08;13.50;;;;;;;25.81;32.23;157936.03;1723314;83;21827;-87
2021/03/14 02:57:58;;;;;;;24.35;13.88;;;;;;;25.90;32.18;157958.61;1723194;83;21332;-87
2021/03/14 03:00:31;;;;;;;23.90;13.45;;;;;;;26.03;32.10;157994.45;1716129;83;21859;-89
2021/03/14 03:03:04;;;;;;;26.17;14.25;;;;;;;25.91;32.22;157962.58;1721457;82;21737;-89
2021/03/14 03:05:37;;;;;;;27.10;14.63;;;;;;;25.90;32.27;157959.92;1728506;83;21216;-89
2021/03/14 03:08:10;;;;;;;28.55;15.13;;;;;;;25.93;32.27;157967.89;1731325;82;21382;-89
2021/03/14 03:10:47;;;;;;;24.95;13.58;;;;;;;25.99;32.22;157983.81;1708852;82;21343;-89
2021/03/14 03:13:19;;;;;;;25.12;14.90;;;;;;;26.03;32.21;157994.45;1730721;83;21240;-88
2021/03/14 03:15:56;;;;;;;27.37;14.85;;;;;;;26.08;32.19;158007.75;1731382;82;21326;-86
2021/03/14 03:18:29;;;;;;;29.82;14.40;;;;;;;26.12;32.17;158017.05;1713062;83;21829;-88
2021/03/14 03:21:01;;;;;;;25.95;14.45;;;;;;;26.21;32.11;158040.94;1730927;83;21346;-87
2021/03/14 03:23:35;;;;;;;27.65;14.90;;;;;;;26.30;32.02;158066.20;1730401;83;21177;-85
2021/03/14 03:26:10;;;;;;;28.52;14.85;;;;;;;26.16;32.13;158029.00;1731389;82;21185;-85
2021/03/14 03:28:43;;;;;;;29.80;14.95;;;;;;;26.12;32.17;158017.05;1730487;83;21247;-85
2021/03/14 03:31:17;;;;;;;23.45;13.55;;;;;;;26.11;32.21;158014.38;1729184;83;21362;-85
2021/03/14 03:33:49;;;;;;;23.75;13.55;;;;;;;26.14;32.16;158022.36;1730973;82;21168;-81
2021/03/14 03:36:22;;;;;;;28.47;14.58;;;;;;;26.14;32.17;158023.67;1731184;83;21188;-84
2021/03/14 03:38:54;;;;;;;26.62;14.07;;;;;;;26.12;32.18;158018.34;1731324;83;21727;-84
2021/03/14 03:41:29;;;;;;;24.55;12.90;;;;;;;26.37;31.96;158083.47;1708443;83;21161;-83
2021/03/14 03:44:01;;;;;;;27.00;15.13;;;;;;;26.42;31.90;158096.78;1730717;83;21683;-81
2021/03/14 03:46:34;;;;;;;25.12;13.48;;;;;;;26.17;32.06;158031.66;1730933;83;21184;-82
2021/03/14 03:49:07;;;;;;;24.15;12.80;;;;;;;26.03;32.23;157994.45;1731219;82;21327;-82
2021/03/14 03:51:39;;;;;;;22.52;12.58;;;;;;;26.05;32.23;157998.42;1730665;83;21153;-83
2021/03/14 03:54:11;;;;;;;24.95;13.58;;;;;;;26.25;32.11;158051.59;1713101;83;21243;-83
2021/03/14 03:56:43;;;;;;;25.57;13.40;;;;;;;26.20;32.07;158039.64;1722054;82;21215;-82
2021/03/14 03:59:15;;;;;;;24.27;12.53;;;;;;;26.25;32.02;158052.89;1710065;83;21180;-88
2021/03/14 04:01:48;;;;;;;22.80;12.93;;;;;;;26.41;31.83;158094.13;1731357;82;21216;-87
2021/03/14 04:04:23;;;;;;;30.10;14.55;;;;;;;26.38;31.87;158087.44;1702084;84;21215;-88
2021/03/14 04:06:57;;;;;;;20.25;11.22;;;;;;;26.39;31.83;158090.09;1696146;84;21194;-87
2021/03/14 04:09:29;;;;;;;22.82;13.38;;;;;;;26.34;31.87;158075.48;1713381;83;21285;-88
2021/03/14 04:12:02;;;;;;;24.00;12.55;;;;;;;26.37;31.86;158083.47;1713260;83;21241;-89
2021/03/14 04:14:34;;;;;;;24.52;12.53;;;;;;;26.31;31.92;158067.50;1685211;85;21691;-87
2021/03/14 04:17:07;;;;;;;24.80;12.37;;;;;;;26.43;31.83;158100.80;1715606;82;21689;-89
2021/03/14 04:19:40;;;;;;;21.25;12.50;;;;;;;26.47;31.76;158110.09;1719674;83;21704;-88
2021/03/14 04:22:12;;;;;;;23.55;12.28;;;;;;;26.24;32.00;158048.92;1710183;83;21178;-87
2021/03/14 04:24:46;;;;;;;24.55;12.23;;;;;;;26.41;31.84;158095.47;1712570;83;21167;-87
2021/03/14 04:27:19;;;;;;;22.75;11.68;;;;;;;26.23;31.94;158047.56;1714536;83;21764;-86
2021/03/14 04:29:51;;;;;;;26.97;12.13;;;;;;;26.07;32.09;158005.09;1714262;83;21700;-88
2021/03/14 04:32:24;;;;;;;21.50;10.85;;;;;;;25.92;32.21;157965.23;1716700;83;21162;-87
2021/03/14 04:34:57;;;;;;;19.70;11.08;;;;;;;25.94;32.21;157969.20;1711739;83;21177;-88
2021/03/14 04:37:30;;;;;;;20.97;11.35;;;;;;;26.11;32.05;158014.38;1716503;83;21193;-83
2021/03/14 04:40:02;;;;;;;19.40;10.30;;;;;;;26.18;31.96;158032.95;1718347;83;21174;-84
2021/03/14 04:42:35;;;;;;;21.97;11.60;;;;;;;26.16;31.94;158029.00;1712959;83;21387;-85
2021/03/14 04:45:09;;;;;;;22.35;11.45;;;;;;;26.36;31.75;158080.81;1709666;83;21182;-84
2021/03/14 04:47:43;;;;;;;18.67;10.30;;;;;;;26.33;31.77;158072.83;1720084;83;21316;-82
2021/03/14 04:50:21;;;;;;;20.77;11.40;;;;;;;26.31;31.79;158067.50;1717687;83;21752;-80
2021/03/14 04:52:57;;;;;;;19.02;10.25;;;;;;;26.35;31.74;158079.45;1717434;83;21174;-80
2021/03/14 04:55:32;;;;;;;17.17;9.70;;;;;;;26.26;31.83;158054.25;1715097;83;21206;-80
2021/03/14 04:58:04;;;;;;;18.42;10.35;;;;;;;26.29;31.79;158062.19;1684658;83;21167;-80
2021/03/14 05:00:37;;;;;;;16.77;10.20;;;;;;;26.31;31.77;158068.86;1716716;83;21681;-81
2021/03/14 05:03:13;;;;;;;17.52;10.13;;;;;;;26.15;31.94;158025.03;1713099;82;21779;-80
2021/03/14 05:05:46;;;;;;;15.65;8.70;;;;;;;26.02;32.12;157990.48;1713105;82;21265;-81
2021/03/14 05:08:20;;;;;;;17.65;9.25;;;;;;;25.91;32.24;157961.28;1712577;83;21383;-81
2021/03/14 05:10:53;;;;;;;17.20;9.85;;;;;;;25.79;32.40;157929.41;1685273;83;21191;-80
2021/03/14 05:13:27;;;;;;;16.20;8.70;;;;;;;25.89;32.30;157957.25;1716482;83;21737;-80
2021/03/14 05:15:59;;;;;;;18.57;8.98;;;;;;;26.05;32.19;157999.78;1721220;83;21328;-78
2021/03/14 05:18:32;;;;;;;15.08;8.73;;;;;;;26.03;32.21;157993.16;1716393;83;21186;-79
2021/03/14 05:21:06;;;;;;;15.48;8.55;;;;;;;26.16;32.12;158027.64;1708204;83;21341;-81
2021/03/14 05:23:38;;;;;;;15.70;9.45;;;;;;;26.08;32.11;158006.41;1707935;83;21872;-81
2021/03/14 05:26:13;;;;;;;15.60;9.33;;;;;;;26.19;32.10;158035.63;1712032;83;21847;-78
2021/03/14 05:28:45;;;;;;;16.80;9.08;;;;;;;26.25;32.07;158052.89;1712415;84;21395;-78
2021/03/14 05:31:34;;;;;;;14.98;9.55;;;;;;;26.25;32.10;158051.59;1712567;83;21222;-82
2021/03/14 05:34:11;;;;;;;15.45;8.98;;;;;;;26.43;31.98;158099.44;1721373;83;21383;-80
2021/03/14 05:36:43;;;;;;;15.38;9.40;;;;;;;26.45;31.94;158104.77;1721858;83;21239;-80
2021/03/14 05:39:15;;;;;;;15.58;8.70;;;;;;;26.55;31.74;158134.00;1722060;83;21321;-81
2021/03/14 05:41:48;;;;;;;13.43;8.20;;;;;;;26.44;31.84;158103.47;1721763;83;21839;-79
2021/03/14 05:44:21;;;;;;;13.32;7.65;;;;;;;26.42;31.85;158098.14;1716478;83;21210;-78
2021/03/14 05:46:54;;;;;;;15.55;9.18;;;;;;;26.45;31.80;158104.77;1716440;83;21340;-78
2021/03/14 05:49:27;;;;;;;12.80;7.90;;;;;;;26.37;31.89;158083.47;1716934;82;21313;-79
2021/03/14 05:52:01;;;;;;;13.85;8.58;;;;;;;26.45;31.85;158104.77;1715468;83;21330;-78
2021/03/14 05:54:33;;;;;;;12.53;8.25;;;;;;;26.44;31.98;158102.11;1729258;82;21304;-80
2021/03/14 05:57:06;;;;;;;13.88;7.62;;;;;;;26.61;31.77;158148.61;1721481;83;21835;-81
2021/03/14 05:59:40;;;;;;;16.95;8.70;;;;;;;26.64;31.77;158157.91;1685758;83;21184;-82
2021/03/14 06:02:12;;;;;;;12.23;7.15;;;;;;;26.70;31.69;158173.88;1718645;83;21158;-83
2021/03/14 06:04:47;;;;;;;12.75;8.08;;;;;;;26.77;31.61;158192.47;1714704;83;21341;-81
2021/03/14 06:07:19;;;;;;;13.10;8.08;;;;;;;26.83;31.54;158207.08;1718441;83;21177;-84
2021/03/14 06:09:53;;;;;;;12.80;7.85;;;;;;;26.76;31.63;158188.50;1718909;83;21203;-76
2021/03/14 06:12:27;;;;;;;11.53;7.30;;;;;;;26.69;31.74;158169.86;1713898;83;21219;-75
2021/03/14 06:14:59;;;;;;;13.80;7.40;;;;;;;26.64;31.82;158157.91;1706911;83;21747;-79
2021/03/14 06:17:32;;;;;;;12.60;7.65;;;;;;;26.94;31.48;158236.31;1713729;83;21180;-79
2021/03/14 06:20:08;;;;;;;14.55;7.25;;;;;;;26.84;31.49;158209.73;1714148;82;21574;-77
2021/03/14 06:22:44;;;;;;;12.88;6.72;;;;;;;26.75;31.61;158187.12;1716993;83;21196;-80
2021/03/14 06:25:26;;;;;;;11.85;8.05;;;;;;;26.99;31.41;158249.63;1715410;83;21212;-79
2021/03/14 06:27:58;;;;;;;12.63;7.78;;;;;;;27.10;31.27;158278.92;1723011;83;21188;-83
2021/03/14 06:30:35;;;;;;;12.13;7.60;;;;;;;27.02;31.39;158258.97;1713261;83;21299;-78
2021/03/14 06:33:11;;;;;;;10.58;6.70;;;;;;;27.07;31.36;158270.92;1718902;83;21207;-82
2021/03/14 06:35:46;;;;;;;10.93;6.95;;;;;;;27.11;31.29;158281.58;1724309;83;21382;-79
2021/03/14 06:38:32;;;;;;;11.45;6.72;;;;;;;27.20;31.22;158306.81;1707778;83;21228;-83
2021/03/14 06:41:10;;;;;;;11.57;6.62;;;;;;;27.18;31.26;158301.53;1712469;83;21179;-79
2021/03/14 06:43:49;;;;;;;9.50;5.72;;;;;;;27.21;31.16;158308.16;1710854;83;21184;-78
2021/03/14 06:46:33;;;;;;;10.25;5.47;;;;;;;27.28;31.06;158326.75;1711155;83;21755;-76
2021/03/14 06:49:14;;;;;;;9.35;5.85;;;;;;;27.10;31.12;158280.22;1701363;82;21679;-83
2021/03/14 06:51:58;;;;;;;10.82;5.85;;;;;;;27.24;31.13;158317.45;1721477;83;21362;-81
2021/03/14 06:54:45;;;;;;;9.90;5.92;;;;;;;27.15;31.11;158292.19;1713884;83;21224;-78
2021/03/14 06:57:22;;;;;;;8.18;5.25;;;;;;;27.11;31.21;158281.58;1714387;83;21254;-77
2021/03/14 06:59:56;;;;;;;8.53;5.28;;;;;;;27.06;31.24;158269.63;1719941;82;21248;-82
2021/03/14 07:02:31;;;;;;;8.45;5.35;;;;;;;27.08;31.21;158273.59;1705730;83;21228;-82
2021/03/14 07:05:05;;;;;;;9.33;5.75;;;;;;;27.19;31.22;158302.84;1728852;83;21195;-74
2021/03/14 07:07:42;;;;;;;8.70;5.90;;;;;;;27.42;31.08;158363.98;1703934;83;21219;-75
2021/03/14 07:10:17;;;;;;;8.70;5.22;;;;;;;27.58;30.87;158407.86;1706841;82;21266;-75
2021/03/14 07:12:50;;;;;;;9.13;5.35;;;;;;;27.57;30.84;158406.56;1707390;83;21662;-76
2021/03/14 07:15:23;;;;;;;7.72;4.85;;;;;;;27.31;31.01;158334.73;1705468;83;21813;-76
2021/03/14 07:17:58;;;;;;;7.92;4.90;;;;;;;27.37;31.01;158350.72;1704856;83;21192;-82
2021/03/14 07:20:31;;;;;;;7.87;5.47;;;;;;;27.49;30.98;158385.25;1707049;83;21200;-78
2021/03/14 07:23:09;;;;;;;7.70;5.00;;;;;;;27.65;30.90;158427.88;1708812;83;21203;-78
2021/03/14 07:25:46;;;;;;;8.23;5.20;;;;;;;27.92;30.66;158499.70;1707953;83;21200;-81
2021/03/14 07:28:19;;;;;;;7.70;5.70;;;;;;;28.15;30.60;158559.53;1719346;82;21349;-80
2021/03/14 07:30:52;;;;;;;8.78;5.17;;;;;;;28.32;30.35;158606.16;1704205;83;21270;-75
2021/03/14 07:33:25;;;;;;;7.47;5.03;;;;;;;28.36;30.18;158615.47;1704898;83;21211;-78
2021/03/14 07:35:58;;;;;;;7.72;4.87;;;;;;;28.41;30.12;158628.78;1709403;82;21325;-77
2021/03/14 07:38:31;;;;;;;6.37;4.28;;;;;;;28.50;30.04;158655.39;1703803;83;21756;-76
2021/03/14 07:41:04;;;;;;;7.50;5.40;;;;;;;28.57;30.04;158674.06;1720687;83;21832;-76
2021/03/14 07:43:37;;;;;;;8.00;4.60;;;;;;;28.67;29.96;158700.66;1712547;83;21840;-72
2021/03/14 07:46:09;;;;;;;6.87;4.58;;;;;;;28.56;29.88;158670.03;1710866;82;21250;-76
2021/03/14 07:48:42;;;;;;;7.12;4.65;;;;;;;28.39;30.03;158624.81;1708254;83;21299;-76
2021/03/14 07:51:15;;;;;;;7.95;4.60;;;;;;;28.29;30.12;158598.22;1719419;83;21346;-78
2021/03/14 07:53:51;;;;;;;6.92;4.78;;;;;;;28.29;30.07;158596.84;1693214;83;21227;-76
2021/03/14 07:56:25;;;;;;;7.20;4.67;;;;;;;28.21;30.20;158576.84;1712970;83;21255;-77
2021/03/14 07:58:57;;;;;;;6.30;4.30;;;;;;;28.17;30.21;158566.23;1720051;83;21160;-79
2021/03/14 08:01:31;;;;;;;7.70;5.15;;;;;;;27.96;30.33;158509.00;1710219;83;21271;-79
2021/03/14 08:04:05;;;;;;;6.70;4.45;;;;;;;28.03;30.33;158528.97;1713672;83;21833;-78
2021/03/14 08:06:49;;;;;;;9.70;5.15;;;;;;;28.05;30.34;158534.30;1689688;81;21171;-75
2021/03/14 08:09:48;;;;;;;6.05;4.22;;;;;;;28.17;30.26;158564.87;1701396;83;21216;-76
2021/03/14 08:12:41;;;;;;;7.50;4.83;;;;;;;28.13;30.22;158555.56;1678606;83;21390;-76
2021/03/14 08:15:30;;;;;;;6.03;4.42;;;;;;;28.30;30.22;158599.52;1649473;84;21211;-74
2021/03/14 08:18:11;;;;;;;6.10;4.50;;;;;;;28.47;30.02;158646.09;1671884;83;21218;-74
2021/03/14 08:21:00;;;;;;;7.35;4.87;;;;;;;28.52;29.99;158660.72;1691794;83;21192;-71
2021/03/14 08:23:45;;;;;;;6.47;4.30;;;;;;;28.60;29.96;158682.00;1716585;81;21223;-73
2021/03/14 08:26:33;;;;;;;6.08;4.33;;;;;;;28.61;30.01;158684.67;1697324;83;21322;-74
2021/03/14 08:29:13;;;;;;;5.33;4.17;;;;;;;28.86;29.88;158749.97;1711283;81;21224;-75
2021/03/14 08:31:58;;;;;;;7.30;5.20;;;;;;;29.07;29.69;158805.86;1714004;81;21230;-77
2021/03/14 08:34:56;;;;;;;7.12;4.37;;;;;;;29.48;29.40;158917.75;1709412;81;21773;-75
2021/03/14 08:37:32;;;;;;;6.28;4.42;;;;;;;29.50;29.30;158921.78;1713508;83;21365;-78
2021/03/14 08:40:06;;;;;;;6.20;4.35;;;;;;;29.61;29.24;158952.38;1711854;81;21184;-75
2021/03/14 08:42:56;;;;;;;7.70;5.53;;;;;;;29.75;29.07;158989.69;1704831;81;21191;-73
2021/03/14 08:45:33;;;;;;;6.08;4.35;;;;;;;29.48;29.11;158917.75;1710996;81;21723;-75
2021/03/14 08:48:07;;;;;;;7.95;5.08;;;;;;;29.38;29.17;158889.81;1698783;81;21215;-77
2021/03/14 08:50:41;;;;;;;7.33;4.70;;;;;;;29.19;29.25;158839.13;1710206;81;21263;-74
2021/03/14 08:53:15;;;;;;;7.33;4.97;;;;;;;29.09;29.40;158811.20;1707299;81;21208;-72
2021/03/14 08:55:55;;;;;;;7.47;4.60;;;;;;;29.35;29.45;158883.06;1705249;82;21893;-74
2021/03/14 08:58:31;;;;;;;8.78;4.92;;;;;;;29.33;29.52;158876.42;1717874;83;21306;-71
2021/03/14 09:01:14;;;;;;;6.83;4.67;;;;;;;29.50;29.46;158921.78;1717710;81;21183;-72
2021/03/14 09:04:29;;;;;;;6.03;3.95;;;;;;;29.56;29.25;158937.72;1673626;83;21191;-71
2021/03/14 09:07:17;;;;;;;6.65;4.60;;;;;;;29.75;29.04;158989.69;1704859;81;21187;-74
2021/03/14 09:10:21;;;;;;;7.33;4.92;;;;;;;29.80;29.04;159001.66;1708469;81;21181;-74
2021/03/14 09:13:03;;;;;;;7.85;4.85;;;;;;;29.88;28.84;159024.31;1706520;82;21215;-76
2021/03/14 09:16:00;;;;;;;7.00;4.62;;;;;;;29.89;28.86;159025.63;1711124;81;21353;-76
2021/03/14 09:18:55;;;;;;;8.65;5.80;;;;;;;30.11;28.75;159084.28;1708966;81;21279;-77
2021/03/14 09:21:29;;;;;;;7.65;4.97;;;;;;;30.34;28.64;159148.25;1675334;83;21210;-82
2021/03/14 09:24:05;;;;;;;7.78;5.05;;;;;;;30.42;28.18;159168.25;1691903;83;22034;-78
2021/03/14 09:27:21;;;;;;;8.48;5.22;;;;;;;30.50;28.15;159190.97;1713113;83;21188;-73
2021/03/14 09:29:58;;;;;;;9.18;5.42;;;;;;;30.66;28.06;159233.63;1713455;81;21353;-81
2021/03/14 09:32:53;;;;;;;7.75;5.40;;;;;;;31.06;28.01;159338.98;1719742;83;21339;-72
2021/03/14 09:35:44;;;;;;;7.50;5.15;;;;;;;31.25;27.74;159390.94;1718028;81;21782;-79
2021/03/14 09:38:18;;;;;;;9.95;6.33;;;;;;;31.87;27.43;159556.39;1712267;82;21330;-80
2021/03/14 09:40:53;;;;;;;10.03;6.90;;;;;;;32.91;26.58;159836.75;1709864;81;21164;-80
2021/03/14 09:43:32;;;;;;;9.60;6.25;;;;;;;33.30;26.18;159940.95;1714298;83;21259;-76
2021/03/14 09:46:22;;;;;;;7.50;5.42;;;;;;;33.43;25.91;159977.00;1718867;82;21183;-78
2021/03/14 09:49:21;;;;;;;9.43;6.00;;;;;;;33.69;25.85;160046.52;1708088;81;21727;-79
2021/03/14 09:52:00;;;;;;;9.10;5.67;;;;;;;33.57;25.64;160013.03;1707343;81;21267;-81
2021/03/14 09:54:35;;;;;;;9.65;6.17;;;;;;;33.11;25.88;159888.88;1706153;83;21256;-83
2021/03/14 09:57:11;;;;;;;9.60;6.20;;;;;;;32.77;26.16;159799.36;1712619;81;21445;-84
2021/03/14 09:59:46;;;;;;;9.00;6.15;;;;;;;32.87;26.17;159824.73;1714938;81;21310;-78
2021/03/14 10:02:26;;;;;;;10.72;6.00;;;;;;;32.93;26.30;159840.78;1705943;83;21223;-84
2021/03/14 10:05:11;;;;;;;10.60;7.10;;;;;;;32.67;26.06;159771.36;1708332;82;21219;-79
2021/03/14 10:07:47;;;;;;;10.70;6.65;;;;;;;32.05;26.44;159604.44;1705868;83;21208;-81
2021/03/14 10:10:22;;;;;;;10.55;6.72;;;;;;;31.64;26.78;159496.39;1659624;83;21760;-87
2021/03/14 10:12:59;;;;;;;11.38;7.12;;;;;;;31.61;27.07;159487.02;1704472;83;21237;-86
2021/03/14 10:15:33;;;;;;;11.30;7.40;;;;;;;31.38;27.18;159426.98;1702919;83;21213;-86
2021/03/14 10:18:08;;;;;;;12.28;6.97;;;;;;;31.51;27.02;159460.30;1696341;81;21220;-82
2021/03/14 10:20:41;;;;;;;11.08;7.08;;;;;;;31.83;26.97;159547.06;1696787;83;21264;-79
2021/03/14 10:23:23;;;;;;;11.40;6.72;;;;;;;32.65;26.49;159766.00;1704441;83;21740;-87
2021/03/14 10:26:02;;;;;;;10.82;6.22;;;;;;;33.41;25.92;159970.33;1701076;82;21665;-80
2021/03/14 10:28:38;;;;;;;10.35;6.92;;;;;;;33.54;25.66;160006.38;1704451;81;21232;-82
2021/03/14 10:31:19;;;;;;;11.93;6.67;;;;;;;33.43;25.77;159975.69;1703528;82;21210;-85
2021/03/14 10:33:53;;;;;;;11.30;6.50;;;;;;;33.26;25.79;159930.25;1676255;83;21174;-79
2021/03/14 10:36:28;;;;;;;9.83;6.42;;;;;;;33.12;25.83;159892.86;1685356;83;21194;-80
2021/03/14 10:39:03;;;;;;;9.25;6.35;;;;;;;32.99;25.90;159856.78;1678622;83;21174;-78
2021/03/14 10:41:45;;;;;;;10.43;6.03;;;;;;;33.06;25.90;159875.45;1689017;83;21198;-79
2021/03/14 10:44:23;;;;;;;9.28;5.80;;;;;;;33.18;25.68;159908.91;1689605;83;21368;-77
2021/03/14 10:47:15;;;;;;;8.95;5.60;;;;;;;33.08;25.66;159882.16;1689665;83;21453;-75
2021/03/14 10:49:52;;;;;;;10.08;6.05;;;;;;;32.92;25.99;159838.11;1697552;83;21316;-84
2021/03/14 10:52:24;;;;;;;11.78;7.03;;;;;;;32.50;26.18;159727.25;1691295;83;21174;-77
2021/03/14 10:54:59;;;;;;;12.13;7.53;;;;;;;32.32;26.13;159679.19;1695109;82;21182;-81
2021/03/14 10:57:35;;;;;;;10.50;6.50;;;;;;;31.77;26.67;159531.03;1698713;82;21328;-76
2021/03/14 11:00:09;;;;;;;12.25;7.15;;;;;;;31.51;26.93;159460.30;1692861;82;21292;-81
2021/03/14 11:02:53;;;;;;;15.05;8.83;;;;;;;31.31;27.20;159406.97;1690549;82;21383;-82
2021/03/14 11:05:23;;;;;;;12.05;7.42;;;;;;;31.06;27.40;159340.30;1687215;83;21170;-86
2021/03/14 11:08:02;;;;;;;14.23;7.37;;;;;;;30.94;27.65;159308.25;1698144;82;21336;-81
2021/03/14 11:10:37;;;;;;;11.43;6.75;;;;;;;30.93;27.66;159304.27;1700726;82;21388;-80
2021/03/14 11:13:17;;;;;;;11.28;7.10;;;;;;;30.58;27.85;159210.97;1691699;82;21263;-81
2021/03/14 11:15:51;;;;;;;10.48;6.78;;;;;;;30.14;28.26;159093.66;1709521;82;21180;-82
2021/03/14 11:18:27;;;;;;;12.58;7.17;;;;;;;30.22;28.21;159114.95;1645996;84;21213;-84
2021/03/14 11:21:06;;;;;;;12.10;7.55;;;;;;;30.47;28.06;159181.59;1713268;83;21301;-82
2021/03/14 11:23:40;;;;;;;11.25;6.92;;;;;;;30.36;28.10;159153.58;1708340;82;21887;-76
2021/03/14 11:26:15;;;;;;;14.73;8.23;;;;;;;30.41;28.07;159166.94;1708935;83;21912;-78
2021/03/14 11:28:47;;;;;;;13.25;7.53;;;;;;;30.29;28.34;159132.28;1714130;83;21180;-80
2021/03/14 11:31:22;;;;;;;14.33;8.10;;;;;;;30.27;28.44;159126.94;1715781;83;21187;-80
2021/03/14 11:33:56;;;;;;;15.23;8.90;;;;;;;30.52;28.35;159194.94;1707515;83;21214;-77
2021/03/14 11:36:31;;;;;;;14.43;7.92;;;;;;;30.57;28.18;159209.59;1707065;83;21183;-83
2021/03/14 11:39:09;;;;;;;14.90;8.30;;;;;;;30.72;28.06;159249.59;1717200;82;21377;-79
2021/03/14 11:41:45;;;;;;;16.62;8.95;;;;;;;30.68;28.02;159238.91;1717395;83;21171;-77
2021/03/14 11:44:20;;;;;;;14.83;8.18;;;;;;;30.69;28.24;159240.28;1713891;82;21192;-77
2021/03/14 11:46:54;;;;;;;12.95;7.80;;;;;;;30.79;28.17;159266.92;1713914;82;21918;-78
2021/03/14 11:49:29;;;;;;;15.85;8.85;;;;;;;30.59;28.19;159213.62;1719573;83;21785;-77
2021/03/14 11:52:02;;;;;;;13.80;8.23;;;;;;;30.52;28.28;159196.30;1724872;83;21176;-82
2021/03/14 11:54:38;;;;;;;14.13;8.23;;;;;;;30.27;28.49;159128.25;1720692;83;21362;-81
2021/03/14 11:57:11;;;;;;;12.68;7.92;;;;;;;30.05;28.73;159068.33;1716743;83;21747;-78